createdAt,value
2023-03-06T00:00:44.662Z,9.04
2023-03-06T00:01:49.092Z,8.75
2023-03-06T00:02:52.548Z,8.71
2023-03-06T00:03:55.289Z,8.73
2023-03-06T00:04:59.289Z,8.92
2023-03-06T00:06:03.049Z,8.90
2023-03-06T00:07:06.912Z,9.06
2023-03-06T00:08:09.490Z,9.02
2023-03-06T00:09:12.858Z,9.07
2023-03-06T00:10:17.196Z,9.17
2023-03-06T00:11:20.668Z,9.21
2023-03-06T00:12:23.220Z,9.25
2023-03-06T00:13:30.211Z,9.07
2023-03-06T00:14:32.709Z,9.15
2023-03-06T00:15:36.339Z,8.76
2023-03-06T00:16:38.927Z,8.77
2023-03-06T00:17:42.982Z,8.85
2023-03-06T00:18:47.826Z,8.93
2023-03-06T00:19:51.153Z,8.83
2023-03-06T00:20:53.470Z,9.07
2023-03-06T00:21:58.565Z,9.12
2023-03-06T00:23:01.381Z,9.18
2023-03-06T00:24:05.174Z,9.36
2023-03-06T00:25:09.182Z,9.09
2023-03-06T00:26:12.602Z,8.96
2023-03-06T00:27:14.956Z,9.03
2023-03-06T00:28:18.400Z,9.03
2023-03-06T00:29:20.712Z,9.17
2023-03-06T00:30:25.989Z,9.27
2023-03-06T00:31:29.089Z,9.23
2023-03-06T00:32:32.804Z,9.29
2023-03-06T00:33:35.283Z,9.25
2023-03-06T00:34:38.672Z,9.33
2023-03-06T00:35:41.675Z,9.38
2023-03-06T00:36:45.087Z,9.43
2023-03-06T00:37:48.925Z,9.44
2023-03-06T00:38:52.343Z,9.55
2023-03-06T00:39:54.720Z,9.59
2023-03-06T00:40:58.362Z,9.17
2023-03-06T00:42:00.724Z,9.20
2023-03-06T00:43:04.539Z,9.18
2023-03-06T00:44:07.005Z,9.19
2023-03-06T00:45:11.860Z,9.37
2023-03-06T00:46:14.316Z,9.36
2023-03-06T00:47:18.221Z,9.46
2023-03-06T00:48:20.633Z,9.50
2023-03-06T00:49:24.299Z,9.45
2023-03-06T00:50:26.712Z,9.25
2023-03-06T00:51:30.469Z,9.19
2023-03-06T00:52:33.126Z,9.09
2023-03-06T00:53:38.015Z,9.14
2023-03-06T00:54:40.786Z,9.28
2023-03-06T00:55:46.211Z,9.23
2023-03-06T00:56:48.558Z,9.26
2023-03-06T00:57:52.073Z,9.23
2023-03-06T00:58:54.541Z,9.31
2023-03-06T00:59:57.990Z,9.33
2023-03-06T01:01:00.448Z,9.28
2023-03-06T01:02:04.986Z,9.20
2023-03-06T01:03:08.804Z,9.23
2023-03-06T01:04:12.209Z,9.27
2023-03-06T01:05:16.238Z,9.09
2023-03-06T01:06:18.654Z,9.05
2023-03-06T01:07:28.716Z,9.01
2023-03-06T01:08:31.565Z,8.77
2023-03-06T01:09:37.340Z,8.51
2023-03-06T01:10:46.762Z,8.62
2023-03-06T01:11:51.733Z,8.78
2023-03-06T01:12:54.864Z,8.81
2023-03-06T01:14:00.884Z,8.91
2023-03-06T01:15:04.517Z,8.70
2023-03-06T01:16:10.932Z,8.83
2023-03-06T01:17:13.602Z,8.75
2023-03-06T01:18:17.196Z,8.89
2023-03-06T01:19:19.746Z,8.94
2023-03-06T01:20:23.873Z,8.95
2023-03-06T01:21:26.516Z,8.93
2023-03-06T01:22:30.173Z,8.99
2023-03-06T01:23:33.071Z,8.91
2023-03-06T01:24:37.961Z,8.81
2023-03-06T01:25:40.362Z,8.68
2023-03-06T01:26:43.767Z,8.80
2023-03-06T01:27:46.174Z,8.77
2023-03-06T01:28:49.595Z,8.78
2023-03-06T01:29:51.945Z,8.73
2023-03-06T01:30:55.709Z,8.69
2023-03-06T01:31:57.971Z,8.78
2023-03-06T01:33:01.516Z,8.80
2023-03-06T01:34:03.798Z,8.69
2023-03-06T01:35:08.136Z,8.60
2023-03-06T01:36:13.473Z,8.63
2023-03-06T01:37:16.958Z,8.73
2023-03-06T01:38:19.645Z,8.68
2023-03-06T01:39:23.015Z,8.78
2023-03-06T01:40:26.900Z,8.59
2023-03-06T01:41:30.425Z,8.37
2023-03-06T01:42:33.281Z,8.38
2023-03-06T01:43:38.924Z,8.39
2023-03-06T01:45:00.034Z,8.10
2023-03-06T01:46:25.581Z,8.16
2023-03-06T01:47:28.047Z,8.27
2023-03-06T01:48:31.469Z,8.27
2023-03-06T01:49:38.161Z,8.37
2023-03-06T01:50:41.633Z,8.35
2023-03-06T01:51:48.888Z,8.45
2023-03-06T01:52:55.935Z,8.18
2023-03-06T01:54:01.132Z,7.84
2023-03-06T01:55:09.857Z,7.89
2023-03-06T01:56:14.524Z,8.06
2023-03-06T01:57:23.700Z,8.26
2023-03-06T01:58:26.002Z,8.28
2023-03-06T01:59:30.405Z,8.41
2023-03-06T02:00:33.328Z,8.41
2023-03-06T02:01:40.656Z,8.57
2023-03-06T02:02:47.264Z,8.70
2023-03-06T02:03:51.510Z,8.30
2023-03-06T02:04:53.813Z,8.12
2023-03-06T02:05:58.506Z,8.22
2023-03-06T02:07:04.940Z,8.36
2023-03-06T02:08:10.519Z,8.49
2023-03-06T02:09:13.691Z,8.52
2023-03-06T02:10:18.027Z,8.63
2023-03-06T02:11:23.835Z,8.48
2023-03-06T02:12:28.241Z,8.37
2023-03-06T02:13:32.025Z,8.48
2023-03-06T02:14:35.709Z,8.58
2023-03-06T02:15:38.056Z,8.60
2023-03-06T02:16:42.932Z,8.68
2023-03-06T02:17:46.933Z,8.61
2023-03-06T02:18:51.628Z,8.41
2023-03-06T02:20:02.013Z,7.99
2023-03-06T02:21:08.404Z,8.18
2023-03-06T02:22:11.026Z,8.28
2023-03-06T02:23:22.644Z,8.24
2023-03-06T02:24:35.735Z,8.32
2023-03-06T02:25:43.519Z,8.40
2023-03-06T02:26:48.004Z,8.42
2023-03-06T02:27:51.484Z,8.19
2023-03-06T02:28:53.848Z,7.97
2023-03-06T02:29:57.135Z,8.00
2023-03-06T02:30:59.449Z,8.17
2023-03-06T02:32:02.876Z,8.12
2023-03-06T02:33:05.656Z,8.14
2023-03-06T02:34:30.632Z,7.70
2023-03-06T02:35:35.141Z,7.40
2023-03-06T02:36:42.984Z,7.61
2023-03-06T02:37:47.053Z,7.64
2023-03-06T02:38:52.406Z,7.79
2023-03-06T02:40:04.865Z,7.80
2023-03-06T02:41:10.799Z,7.83
2023-03-06T02:42:18.490Z,8.00
2023-03-06T02:43:25.857Z,8.09
2023-03-06T02:44:29.139Z,8.13
2023-03-06T02:45:38.743Z,8.19
2023-03-06T02:46:41.392Z,8.24
2023-03-06T02:47:44.714Z,8.24
2023-03-06T02:48:47.012Z,8.12
2023-03-06T02:49:50.248Z,8.28
2023-03-06T02:50:52.568Z,8.25
2023-03-06T02:51:55.952Z,8.13
2023-03-06T02:52:58.193Z,8.24
2023-03-06T02:54:01.535Z,8.26
2023-03-06T02:55:04.469Z,7.96
2023-03-06T02:56:10.046Z,8.03
2023-03-06T02:57:12.508Z,7.72
2023-03-06T02:58:15.877Z,7.63
2023-03-06T02:59:18.206Z,7.38
2023-03-06T03:00:21.849Z,7.38
2023-03-06T03:01:24.278Z,7.38
2023-03-06T03:02:27.690Z,7.24
2023-03-06T03:03:30.189Z,7.45
2023-03-06T03:04:33.490Z,7.51
2023-03-06T03:05:35.929Z,7.42
2023-03-06T03:06:39.248Z,7.64
2023-03-06T03:07:41.717Z,7.82
2023-03-06T03:08:45.224Z,7.75
2023-03-06T03:09:47.706Z,7.68
2023-03-06T03:10:51.020Z,7.59
2023-03-06T03:11:54.836Z,7.63
2023-03-06T03:12:59.481Z,7.45
2023-03-06T03:14:01.979Z,7.51
2023-03-06T03:15:05.868Z,7.60
2023-03-06T03:16:14.102Z,7.44
2023-03-06T03:17:17.992Z,7.52
2023-03-06T03:18:20.448Z,7.67
2023-03-06T03:19:24.487Z,7.32
2023-03-06T03:20:27.025Z,7.52
2023-03-06T03:21:30.386Z,7.64
2023-03-06T03:22:34.086Z,7.37
2023-03-06T03:23:36.516Z,7.38
2023-03-06T03:24:40.137Z,7.40
2023-03-06T03:25:42.520Z,7.47
2023-03-06T03:26:45.935Z,7.68
2023-03-06T03:27:49.769Z,7.55
2023-03-06T03:28:53.107Z,7.58
2023-03-06T03:29:57.706Z,7.41
2023-03-06T03:31:04.852Z,7.42
2023-03-06T03:32:08.036Z,7.57
2023-03-06T03:33:14.382Z,7.54
2023-03-06T03:34:17.151Z,7.50
2023-03-06T03:35:20.664Z,7.50
2023-03-06T03:36:23.268Z,7.59
2023-03-06T03:37:26.655Z,7.59
2023-03-06T03:38:29.315Z,7.55
2023-03-06T03:39:32.749Z,7.63
2023-03-06T03:40:35.131Z,7.69
2023-03-06T03:41:38.431Z,7.88
2023-03-06T03:42:40.763Z,7.82
2023-03-06T03:43:45.997Z,7.73
2023-03-06T03:44:48.565Z,7.84
2023-03-06T03:45:53.883Z,7.78
2023-03-06T03:46:56.235Z,7.56
2023-03-06T03:47:59.869Z,7.67
2023-03-06T03:49:02.244Z,7.66
2023-03-06T03:50:06.386Z,7.79
2023-03-06T03:51:10.814Z,7.89
2023-03-06T03:52:14.212Z,7.98
2023-03-06T03:53:17.036Z,7.83
2023-03-06T03:54:20.428Z,7.66
2023-03-06T03:55:22.661Z,7.62
2023-03-06T03:56:26.913Z,7.43
2023-03-06T03:57:29.205Z,7.52
2023-03-06T03:58:33.037Z,7.45
2023-03-06T03:59:36.910Z,7.54
2023-03-06T04:00:40.375Z,7.49
2023-03-06T04:01:42.706Z,7.52
2023-03-06T04:02:47.064Z,7.58
2023-03-06T04:03:49.450Z,7.45
2023-03-06T04:04:53.329Z,7.55
2023-03-06T04:05:58.092Z,7.59
2023-03-06T04:07:01.863Z,7.71
2023-03-06T04:08:05.630Z,7.64
2023-03-06T04:09:09.038Z,7.53
2023-03-06T04:10:13.056Z,7.75
2023-03-06T04:11:16.808Z,7.68
2023-03-06T04:12:19.662Z,7.66
2023-03-06T04:13:24.148Z,7.59
2023-03-06T04:14:26.754Z,7.72
2023-03-06T04:15:31.899Z,7.64
2023-03-06T04:16:34.411Z,7.70
2023-03-06T04:17:38.254Z,7.58
2023-03-06T04:18:41.080Z,7.50
2023-03-06T04:19:44.867Z,7.53
2023-03-06T04:20:47.420Z,7.66
2023-03-06T04:21:50.990Z,7.63
2023-03-06T04:22:53.413Z,7.64
2023-03-06T04:23:57.172Z,7.62
2023-03-06T04:24:59.580Z,7.52
2023-03-06T04:26:03.009Z,7.56
2023-03-06T04:27:05.847Z,7.48
2023-03-06T04:28:10.438Z,7.47
2023-03-06T04:29:12.975Z,7.60
2023-03-06T04:30:16.570Z,7.64
2023-03-06T04:31:20.287Z,7.38
2023-03-06T04:32:24.092Z,7.78
2023-03-06T04:33:26.524Z,7.83
2023-03-06T04:34:29.846Z,7.91
2023-03-06T04:35:32.366Z,7.97
2023-03-06T04:36:36.518Z,7.85
2023-03-06T04:37:39.030Z,7.96
2023-03-06T04:38:42.421Z,7.98
2023-03-06T04:39:45.043Z,7.97
2023-03-06T04:40:49.789Z,7.94
2023-03-06T04:41:52.461Z,8.02
2023-03-06T04:42:56.486Z,7.98
2023-03-06T04:43:58.873Z,7.98
2023-03-06T04:45:02.213Z,8.00
2023-03-06T04:46:04.650Z,8.04
2023-03-06T04:47:10.001Z,8.12
2023-03-06T04:48:14.518Z,8.19
2023-03-06T04:49:18.087Z,8.10
2023-03-06T04:50:20.478Z,8.11
2023-03-06T04:51:24.106Z,8.21
2023-03-06T04:52:26.454Z,8.24
2023-03-06T04:53:29.746Z,8.26
2023-03-06T04:54:32.201Z,8.30
2023-03-06T04:55:35.878Z,8.38
2023-03-06T04:56:38.104Z,8.40
2023-03-06T04:57:42.904Z,8.38
2023-03-06T04:58:45.627Z,8.52
2023-03-06T04:59:49.768Z,8.61
2023-03-06T05:00:52.257Z,8.61
2023-03-06T05:01:55.814Z,8.61
2023-03-06T05:03:01.298Z,8.57
2023-03-06T05:04:04.607Z,8.64
2023-03-06T05:05:07.760Z,8.77
2023-03-06T05:06:11.502Z,8.84
2023-03-06T05:07:13.723Z,8.90
2023-03-06T05:08:18.350Z,8.96
2023-03-06T05:09:20.865Z,9.01
2023-03-06T05:10:25.251Z,9.04
2023-03-06T05:11:27.841Z,9.09
2023-03-06T05:12:31.305Z,9.17
2023-03-06T05:13:33.828Z,9.23
2023-03-06T05:14:37.176Z,9.25
2023-03-06T05:15:40.801Z,9.21
2023-03-06T05:16:44.141Z,9.16
2023-03-06T05:17:47.677Z,9.23
2023-03-06T05:18:52.359Z,9.23
2023-03-06T05:19:54.684Z,9.17
2023-03-06T05:21:00.131Z,9.20
2023-03-06T05:22:02.496Z,9.22
2023-03-06T05:23:05.844Z,9.30
2023-03-06T05:24:09.445Z,9.21
2023-03-06T05:25:12.258Z,9.25
2023-03-06T05:26:16.753Z,9.30
2023-03-06T05:27:19.445Z,9.30
2023-03-06T05:28:23.436Z,9.30
2023-03-06T05:29:25.858Z,9.29
2023-03-06T05:30:29.343Z,9.28
2023-03-06T05:31:31.832Z,9.38
2023-03-06T05:32:35.838Z,9.43
2023-03-06T05:33:38.296Z,9.39
2023-03-06T05:34:43.154Z,9.44
2023-03-06T05:35:48.354Z,9.41
2023-03-06T05:36:50.680Z,9.40
2023-03-06T05:37:54.228Z,9.41
2023-03-06T05:38:56.665Z,9.43
2023-03-06T05:40:00.708Z,9.37
2023-03-06T05:41:03.743Z,9.42
2023-03-06T05:42:07.297Z,9.37
2023-03-06T05:43:10.488Z,9.51
2023-03-06T05:44:14.619Z,9.47
2023-03-06T05:45:18.168Z,9.41
2023-03-06T05:46:20.581Z,9.49
2023-03-06T05:47:24.070Z,9.51
2023-03-06T05:48:26.436Z,9.44
2023-03-06T05:49:34.944Z,9.49
2023-03-06T05:50:40.373Z,9.50
2023-03-06T05:51:42.971Z,9.47
2023-03-06T05:52:46.348Z,9.48
2023-03-06T05:53:48.506Z,9.48
2023-03-06T05:54:53.487Z,9.51
2023-03-06T05:55:57.107Z,9.52
2023-03-06T05:57:00.402Z,9.52
2023-03-06T05:58:02.690Z,9.60
2023-03-06T05:59:05.987Z,9.51
2023-03-06T06:00:10.801Z,9.57
2023-03-06T06:01:16.243Z,9.64
2023-03-06T06:02:19.307Z,9.70
2023-03-06T06:03:22.836Z,9.77
2023-03-06T06:04:26.338Z,9.71
2023-03-06T06:05:29.670Z,9.63
2023-03-06T06:06:33.346Z,9.65
2023-03-06T06:07:36.740Z,9.71
2023-03-06T06:08:39.538Z,9.69
2023-03-06T06:09:43.516Z,9.74
2023-03-06T06:10:46.927Z,9.72
2023-03-06T06:11:51.782Z,9.78
2023-03-06T06:12:55.132Z,9.73
2023-03-06T06:13:57.464Z,9.75
2023-03-06T06:15:00.762Z,9.89
2023-03-06T06:16:07.432Z,9.93
2023-03-06T06:17:12.606Z,9.86
2023-03-06T06:18:14.901Z,9.81
2023-03-06T06:19:20.414Z,9.89
2023-03-06T06:20:22.905Z,9.89
2023-03-06T06:21:26.393Z,9.92
2023-03-06T06:22:30.145Z,9.94
2023-03-06T06:23:33.484Z,9.92
2023-03-06T06:24:35.864Z,9.86
2023-03-06T06:25:39.458Z,9.86
2023-03-06T06:26:42.371Z,9.92
2023-03-06T06:27:45.919Z,9.86
2023-03-06T06:28:48.208Z,9.96
2023-03-06T06:29:53.136Z,9.99
2023-03-06T06:30:55.640Z,10.02
2023-03-06T06:31:59.105Z,10.13
2023-03-06T06:33:01.651Z,10.07
2023-03-06T06:34:05.129Z,10.06
2023-03-06T06:35:09.085Z,10.09
2023-03-06T06:36:19.883Z,10.05
2023-03-06T06:37:23.190Z,10.04
2023-03-06T06:38:26.868Z,10.06
2023-03-06T06:39:30.560Z,10.09
2023-03-06T06:40:32.843Z,10.13
2023-03-06T06:41:53.413Z,10.10
2023-03-06T06:42:58.416Z,10.12
2023-03-06T06:44:01.421Z,10.12
2023-03-06T06:45:05.230Z,10.13
2023-03-06T06:46:32.331Z,10.16
2023-03-06T06:47:30.868Z,10.19
2023-03-06T06:48:33.324Z,10.18
2023-03-06T06:49:36.668Z,10.07
2023-03-06T06:50:39.334Z,10.13
2023-03-06T06:51:43.010Z,10.26
2023-03-06T06:52:46.381Z,10.24
2023-03-06T06:53:51.917Z,10.26
2023-03-06T06:54:55.454Z,10.23
2023-03-06T06:55:58.931Z,10.33
2023-03-06T06:57:02.423Z,10.32
2023-03-06T06:58:04.803Z,10.23
2023-03-06T06:59:16.639Z,10.28
2023-03-06T07:00:20.838Z,10.23
2023-03-06T07:01:24.634Z,10.37
2023-03-06T07:02:27.075Z,10.45
2023-03-06T07:03:30.462Z,10.47
2023-03-06T07:04:32.724Z,10.53
2023-03-06T07:05:36.375Z,10.54
2023-03-06T07:06:39.705Z,10.55
2023-03-06T07:07:42.389Z,10.58
2023-03-06T07:08:45.699Z,10.45
2023-03-06T07:09:49.389Z,10.41
2023-03-06T07:10:52.734Z,10.51
2023-03-06T07:11:55.095Z,10.53
2023-03-06T07:12:58.479Z,10.62
2023-03-06T07:14:02.025Z,10.54
2023-03-06T07:15:06.081Z,10.57
2023-03-06T07:16:08.552Z,10.58
2023-03-06T07:17:11.863Z,10.63
2023-03-06T07:18:15.461Z,10.63
2023-03-06T07:19:18.778Z,10.57
2023-03-06T07:20:22.244Z,10.49
2023-03-06T07:21:25.663Z,10.53
2023-03-06T07:22:30.322Z,10.57
2023-03-06T07:23:35.425Z,10.72
2023-03-06T07:24:38.740Z,10.75
2023-03-06T07:25:43.174Z,10.74
2023-03-06T07:26:48.118Z,10.74
2023-03-06T07:27:53.878Z,10.74
2023-03-06T07:28:57.730Z,10.78
2023-03-06T07:30:00.164Z,10.82
2023-03-06T07:31:03.950Z,10.85
2023-03-06T07:32:06.843Z,10.87
2023-03-06T07:33:11.084Z,10.99
2023-03-06T07:34:16.116Z,11.06
2023-03-06T07:35:20.421Z,11.03
2023-03-06T07:36:25.147Z,11.07
2023-03-06T07:37:29.774Z,11.08
2023-03-06T07:38:33.138Z,11.10
2023-03-06T07:39:35.569Z,11.27
2023-03-06T07:40:40.092Z,11.38
2023-03-06T07:41:45.181Z,11.40
2023-03-06T07:42:47.798Z,11.37
2023-03-06T07:43:51.514Z,11.27
2023-03-06T07:44:53.917Z,11.31
2023-03-06T07:45:58.542Z,11.17
2023-03-06T07:47:02.190Z,11.29
2023-03-06T07:48:05.657Z,11.29
2023-03-06T07:49:10.026Z,11.35
2023-03-06T07:50:12.977Z,11.39
2023-03-06T07:51:20.048Z,11.32
2023-03-06T07:52:22.579Z,11.44
2023-03-06T07:53:26.118Z,11.52
2023-03-06T07:54:30.805Z,11.53
2023-03-06T07:55:33.122Z,11.55
2023-03-06T07:56:36.442Z,11.69
2023-03-06T07:57:40.316Z,11.77
2023-03-06T07:58:46.899Z,11.71
2023-03-06T07:59:49.280Z,11.75
2023-03-06T08:00:52.825Z,11.63
2023-03-06T08:01:57.660Z,11.51
2023-03-06T08:03:01.392Z,11.48
2023-03-06T08:04:03.718Z,11.68
2023-03-06T08:05:08.438Z,11.67
2023-03-06T08:06:13.906Z,11.69
2023-03-06T08:07:16.451Z,11.78
2023-03-06T08:08:19.859Z,11.75
2023-03-06T08:09:22.164Z,11.81
2023-03-06T08:10:25.501Z,11.81
2023-03-06T08:11:31.451Z,11.77
2023-03-06T08:12:33.804Z,11.78
2023-03-06T08:13:40.444Z,11.84
2023-03-06T08:14:42.882Z,11.74
2023-03-06T08:15:50.187Z,11.79
2023-03-06T08:16:56.471Z,11.83
2023-03-06T08:18:00.080Z,11.84
2023-03-06T08:19:02.783Z,11.93
2023-03-06T08:20:07.341Z,12.06
2023-03-06T08:21:12.843Z,11.97
2023-03-06T08:22:16.267Z,12.19
2023-03-06T08:23:19.769Z,12.15
2023-03-06T08:24:22.233Z,12.21
2023-03-06T08:25:26.100Z,12.39
2023-03-06T08:26:31.620Z,12.38
2023-03-06T08:27:34.955Z,12.53
2023-03-06T08:28:39.950Z,12.59
2023-03-06T08:29:42.522Z,12.50
2023-03-06T08:30:45.871Z,12.62
2023-03-06T08:31:49.610Z,12.63
2023-03-06T08:32:52.028Z,12.82
2023-03-06T08:33:56.761Z,12.98
2023-03-06T08:34:59.627Z,12.91
2023-03-06T08:36:03.078Z,13.35
2023-03-06T08:37:05.514Z,13.43
2023-03-06T08:38:08.761Z,13.07
2023-03-06T08:39:13.190Z,13.25
2023-03-06T08:40:16.764Z,13.47
2023-03-06T08:41:20.340Z,13.76
2023-03-06T08:42:23.767Z,13.94
2023-03-06T08:43:26.161Z,13.74
2023-03-06T08:44:30.940Z,13.84
2023-03-06T08:45:33.307Z,14.06
2023-03-06T08:46:37.247Z,14.16
2023-03-06T08:47:39.681Z,13.67
2023-03-06T08:48:43.389Z,13.75
2023-03-06T08:49:46.672Z,14.19
2023-03-06T08:50:49.506Z,14.73
2023-03-06T08:51:53.148Z,14.99
2023-03-06T08:52:55.383Z,14.97
2023-03-06T08:54:00.109Z,15.14
2023-03-06T08:55:03.752Z,15.39
2023-03-06T08:56:08.107Z,15.68
2023-03-06T08:57:11.452Z,15.67
2023-03-06T08:58:14.319Z,15.76
2023-03-06T08:59:17.627Z,15.88
2023-03-06T09:00:22.767Z,15.79
2023-03-06T09:01:27.980Z,15.61
2023-03-06T09:02:31.457Z,15.48
2023-03-06T09:03:33.694Z,15.28
2023-03-06T09:04:37.036Z,15.53
2023-03-06T09:05:41.584Z,15.49
2023-03-06T09:06:44.300Z,15.12
2023-03-06T09:07:47.680Z,15.83
2023-03-06T09:08:51.267Z,16.11
2023-03-06T09:09:57.931Z,15.92
2023-03-06T09:11:00.545Z,16.52
2023-03-06T09:12:04.014Z,16.92
2023-03-06T09:13:06.806Z,17.28
2023-03-06T09:14:10.898Z,17.71
2023-03-06T09:15:14.056Z,18.28
2023-03-06T09:16:18.981Z,18.25
2023-03-06T09:17:22.572Z,18.22
2023-03-06T09:18:25.978Z,18.65
2023-03-06T09:19:29.408Z,18.59
2023-03-06T09:20:32.828Z,18.32
2023-03-06T09:21:36.394Z,18.25
2023-03-06T09:22:42.489Z,18.05
2023-03-06T09:23:45.188Z,18.08
2023-03-06T09:24:49.151Z,17.35
2023-03-06T09:25:53.128Z,17.65
2023-03-06T09:26:56.679Z,17.23
2023-03-06T09:28:11.039Z,16.98
2023-03-06T09:29:16.517Z,17.18
2023-03-06T09:30:20.274Z,17.17
2023-03-06T09:31:24.263Z,17.14
2023-03-06T09:32:27.691Z,17.17
2023-03-06T09:33:31.374Z,17.46
2023-03-06T09:34:34.699Z,17.73
2023-03-06T09:35:42.805Z,17.83
2023-03-06T09:36:55.846Z,17.59
2023-03-06T09:37:59.705Z,18.19
2023-03-06T09:39:03.072Z,17.79
2023-03-06T09:40:07.606Z,18.15
2023-03-06T09:41:24.434Z,18.05
2023-03-06T09:42:30.389Z,18.49
2023-03-06T09:43:35.888Z,18.62
2023-03-06T09:44:43.412Z,18.48
2023-03-06T09:45:46.153Z,18.46
2023-03-06T09:47:10.026Z,18.21
2023-03-06T09:48:15.882Z,18.26
2023-03-06T09:49:39.484Z,18.06
2023-03-06T09:50:47.312Z,18.30
2023-03-06T09:52:04.318Z,18.32
2023-03-06T09:53:40.798Z,19.22
2023-03-06T09:54:46.132Z,19.80
2023-03-06T09:55:56.969Z,20.02
2023-03-06T09:56:59.381Z,20.42
2023-03-06T09:58:07.532Z,21.07
2023-03-06T09:59:15.737Z,21.16
2023-03-06T10:00:25.281Z,21.80
2023-03-06T10:01:31.328Z,21.87
2023-03-06T10:02:40.327Z,22.51
2023-03-06T10:03:50.773Z,21.97
2023-03-06T10:05:01.204Z,23.04
2023-03-06T10:06:11.534Z,22.98
2023-03-06T10:07:19.045Z,23.34
2023-03-06T10:08:30.663Z,21.40
2023-03-06T10:09:42.755Z,20.60
2023-03-06T10:10:51.353Z,20.47
2023-03-06T10:11:58.867Z,20.12
2023-03-06T10:13:07.394Z,20.52
2023-03-06T10:14:20.351Z,20.28
2023-03-06T10:15:27.919Z,19.75
2023-03-06T10:16:33.215Z,19.43
2023-03-06T10:17:43.112Z,19.43
2023-03-06T10:18:46.968Z,19.35
2023-03-06T10:19:49.998Z,18.96
2023-03-06T10:21:10.322Z,19.30
2023-03-06T10:22:29.454Z,18.50
2023-03-06T10:23:50.878Z,18.86
2023-03-06T10:24:59.034Z,18.94
2023-03-06T10:26:03.244Z,19.17
2023-03-06T10:27:17.920Z,19.52
2023-03-06T10:28:28.636Z,19.35
2023-03-06T10:29:50.165Z,18.82
2023-03-06T10:31:05.041Z,18.05
2023-03-06T10:32:22.441Z,18.20
2023-03-06T10:33:38.614Z,18.33
2023-03-06T10:34:43.466Z,19.01
2023-03-06T10:35:49.777Z,19.17
2023-03-06T10:36:53.201Z,19.00
2023-03-06T10:38:01.074Z,18.45
2023-03-06T10:39:11.518Z,18.15
2023-03-06T10:40:18.470Z,18.22
2023-03-06T10:41:25.584Z,17.97
2023-03-06T10:42:29.025Z,17.76
2023-03-06T10:43:34.680Z,18.08
2023-03-06T10:44:39.595Z,18.11
2023-03-06T10:45:53.886Z,18.06
2023-03-06T10:46:56.541Z,19.02
2023-03-06T10:48:12.235Z,18.98
2023-03-06T10:49:32.189Z,19.74
2023-03-06T10:50:35.453Z,20.24
2023-03-06T10:51:38.719Z,19.94
2023-03-06T10:52:42.488Z,20.28
2023-03-06T10:53:55.062Z,20.78
2023-03-06T10:55:25.110Z,20.61
2023-03-06T10:56:31.843Z,21.30
2023-03-06T10:57:34.181Z,20.36
2023-03-06T10:58:37.554Z,20.02
2023-03-06T10:59:51.774Z,19.76
2023-03-06T11:01:03.910Z,20.09
2023-03-06T11:02:27.469Z,20.39
2023-03-06T11:03:31.481Z,20.62
2023-03-06T11:04:38.913Z,21.06
2023-03-06T11:05:41.262Z,20.59
2023-03-06T11:06:45.382Z,22.03
2023-03-06T11:07:55.114Z,21.91
2023-03-06T11:09:16.086Z,21.39
2023-03-06T11:10:19.984Z,21.67
2023-03-06T11:11:36.797Z,21.37
2023-03-06T11:12:41.423Z,21.76
2023-03-06T11:13:45.766Z,22.18
2023-03-06T11:14:48.161Z,20.86
2023-03-06T11:15:58.732Z,20.67
2023-03-06T11:17:02.021Z,21.17
2023-03-06T11:18:23.763Z,20.84
2023-03-06T11:19:30.064Z,21.14
2023-03-06T11:20:51.111Z,21.37
2023-03-06T11:22:02.876Z,20.63
2023-03-06T11:23:09.540Z,20.37
2023-03-06T11:24:18.763Z,19.42
2023-03-06T11:25:23.414Z,19.82
2023-03-06T11:26:34.258Z,20.48
2023-03-06T11:27:42.768Z,20.50
2023-03-06T11:28:49.842Z,21.00
2023-03-06T11:29:58.381Z,21.52
2023-03-06T11:31:06.492Z,21.98
2023-03-06T11:32:15.578Z,22.59
2023-03-06T11:33:25.141Z,22.82
2023-03-06T11:34:40.342Z,22.11
2023-03-06T11:35:52.686Z,21.41
2023-03-06T11:37:00.016Z,20.86
2023-03-06T11:38:07.445Z,21.03
2023-03-06T11:39:22.950Z,20.77
2023-03-06T11:40:31.328Z,20.68
2023-03-06T11:41:46.119Z,21.25
2023-03-06T11:42:57.382Z,20.94
2023-03-06T11:44:09.755Z,21.32
2023-03-06T11:45:25.449Z,20.90
2023-03-06T11:46:32.477Z,20.69
2023-03-06T11:47:39.351Z,20.24
2023-03-06T11:48:47.725Z,20.10
2023-03-06T11:50:01.033Z,20.87
2023-03-06T11:51:15.355Z,20.52
2023-03-06T11:52:25.247Z,20.10
2023-03-06T11:53:32.503Z,20.41
2023-03-06T11:54:35.865Z,20.93
2023-03-06T11:55:48.240Z,20.61
2023-03-06T11:56:55.406Z,19.75
2023-03-06T11:58:09.697Z,20.17
2023-03-06T11:59:36.747Z,19.53
2023-03-06T12:00:51.415Z,19.95
2023-03-06T12:02:00.821Z,20.20
2023-03-06T12:03:27.236Z,19.97
2023-03-06T12:04:42.697Z,20.02
2023-03-06T12:05:48.741Z,20.59
2023-03-06T12:07:02.172Z,21.00
2023-03-06T12:08:23.535Z,21.20
2023-03-06T12:09:33.695Z,20.93
2023-03-06T12:10:41.703Z,19.80
2023-03-06T12:11:53.997Z,19.51
2023-03-06T12:13:19.922Z,19.21
2023-03-06T12:14:40.344Z,19.06
2023-03-06T12:16:02.024Z,19.73
2023-03-06T12:17:20.852Z,19.55
2023-03-06T12:18:39.683Z,18.66
2023-03-06T12:19:55.708Z,19.30
2023-03-06T12:21:04.733Z,19.42
2023-03-06T12:22:22.990Z,20.00
2023-03-06T12:23:53.044Z,20.00
2023-03-06T12:25:18.045Z,19.51
2023-03-06T12:26:40.279Z,19.74
2023-03-06T12:27:49.727Z,19.71
2023-03-06T12:29:18.128Z,19.46
2023-03-06T12:30:39.167Z,19.67
2023-03-06T12:31:52.098Z,18.90
2023-03-06T12:33:10.451Z,19.44
2023-03-06T12:34:32.713Z,19.80
2023-03-06T12:35:59.028Z,18.92
2023-03-06T12:37:11.992Z,19.41
2023-03-06T12:38:36.341Z,18.79
2023-03-06T12:39:57.095Z,19.36
2023-03-06T12:41:09.265Z,19.39
2023-03-06T12:42:30.747Z,19.39
2023-03-06T12:44:09.187Z,19.20
2023-03-06T12:45:25.798Z,19.26
2023-03-06T12:46:30.691Z,19.46
2023-03-06T12:47:40.513Z,19.47
2023-03-06T12:48:46.874Z,19.28
2023-03-06T12:49:54.669Z,19.06
2023-03-06T12:50:57.311Z,19.01
2023-03-06T12:52:02.075Z,18.93
2023-03-06T12:53:07.446Z,18.81
2023-03-06T12:54:15.422Z,19.22
2023-03-06T12:55:23.682Z,18.97
2023-03-06T12:56:29.718Z,18.95
2023-03-06T12:57:33.044Z,19.09
2023-03-06T12:58:51.076Z,18.62
2023-03-06T12:59:54.922Z,18.57
2023-03-06T13:01:06.042Z,18.56
2023-03-06T13:02:46.722Z,18.02
2023-03-06T13:04:17.942Z,18.39
2023-03-06T13:05:36.529Z,17.77
2023-03-06T13:06:56.824Z,17.63
2023-03-06T13:08:28.797Z,17.36
2023-03-06T13:09:44.349Z,16.78
2023-03-06T13:11:11.326Z,16.95
2023-03-06T13:12:29.049Z,17.02
2023-03-06T13:13:34.856Z,17.43
2023-03-06T13:14:56.814Z,17.54
2023-03-06T13:16:22.769Z,17.67
2023-03-06T13:17:27.688Z,18.01
2023-03-06T13:18:57.494Z,18.43
2023-03-06T13:20:38.092Z,18.05
2023-03-06T13:21:46.049Z,17.70
2023-03-06T13:22:49.733Z,18.10
2023-03-06T13:23:53.175Z,18.63
2023-03-06T13:25:48.165Z,19.02
2023-03-06T13:26:55.474Z,18.61
2023-03-06T13:28:04.159Z,18.19
2023-03-06T13:30:01.890Z,17.68
2023-03-06T13:31:07.325Z,17.27
2023-03-06T13:32:17.544Z,16.57
2023-03-06T13:33:57.170Z,16.61
2023-03-06T13:34:59.586Z,16.32
2023-03-06T13:36:23.133Z,16.14
2023-03-06T13:37:48.719Z,15.89
2023-03-06T13:38:58.181Z,16.22
2023-03-06T13:40:31.408Z,15.91
2023-03-06T13:41:45.176Z,16.02
2023-03-06T13:43:22.243Z,15.64
2023-03-06T13:44:42.924Z,15.63
2023-03-06T13:45:48.479Z,15.54
2023-03-06T13:46:57.998Z,15.67
2023-03-06T13:48:25.068Z,15.66
2023-03-06T13:49:26.804Z,15.75
2023-03-06T13:50:37.877Z,15.69
2023-03-06T13:51:43.544Z,15.45
2023-03-06T13:53:00.967Z,15.38
2023-03-06T13:54:30.799Z,15.52
2023-03-06T13:55:44.338Z,15.71
2023-03-06T13:57:20.173Z,15.48
2023-03-06T13:58:46.472Z,15.57
2023-03-06T14:00:15.627Z,15.44
2023-03-06T14:01:28.614Z,15.28
2023-03-06T14:02:54.928Z,15.43
2023-03-06T14:04:21.032Z,15.95
2023-03-06T14:05:24.834Z,16.52
2023-03-06T14:06:53.102Z,16.91
2023-03-06T14:08:10.275Z,17.31
2023-03-06T14:09:24.212Z,17.31
2023-03-06T14:10:28.158Z,17.08
2023-03-06T14:11:31.732Z,16.50
2023-03-06T14:12:39.379Z,16.53
2023-03-06T14:13:48.812Z,16.45
2023-03-06T14:14:56.634Z,15.97
2023-03-06T14:16:00.238Z,15.87
2023-03-06T14:17:05.257Z,15.63
2023-03-06T14:18:24.974Z,15.35
2023-03-06T14:19:31.190Z,15.43
2023-03-06T14:20:42.409Z,15.35
2023-03-06T14:21:50.411Z,15.30
2023-03-06T14:22:53.967Z,15.24
2023-03-06T14:24:00.635Z,15.15
2023-03-06T14:25:11.455Z,15.07
2023-03-06T14:26:18.569Z,14.69
2023-03-06T14:27:21.323Z,14.74
2023-03-06T14:28:28.023Z,14.89
2023-03-06T14:29:31.709Z,14.88
2023-03-06T14:30:35.145Z,14.84
2023-03-06T14:31:44.010Z,14.63
2023-03-06T14:32:47.438Z,14.69
2023-03-06T14:33:53.657Z,14.39